createdAt,value
2023-02-19T00:00:57.985Z,9.43
2023-02-19T00:01:57.998Z,9.36
2023-02-19T00:02:57.964Z,9.44
2023-02-19T00:03:57.973Z,9.43
2023-02-19T00:04:57.992Z,9.44
2023-02-19T00:05:57.936Z,9.32
2023-02-19T00:06:57.949Z,9.32
2023-02-19T00:07:57.925Z,9.39
2023-02-19T00:08:57.911Z,9.34
2023-02-19T00:09:57.905Z,9.25
2023-02-19T00:10:57.896Z,9.31
2023-02-19T00:11:57.917Z,9.29
2023-02-19T00:12:57.889Z,9.34
2023-02-19T00:13:57.876Z,9.28
2023-02-19T00:14:57.865Z,9.29
2023-02-19T00:15:57.892Z,9.26
2023-02-19T00:16:57.865Z,9.23
2023-02-19T00:17:57.838Z,9.19
2023-02-19T00:18:57.849Z,9.34
2023-02-19T00:19:57.826Z,9.28
2023-02-19T00:20:57.806Z,9.23
2023-02-19T00:21:57.831Z,9.21
2023-02-19T00:22:57.805Z,9.21
2023-02-19T00:23:57.787Z,9.25
2023-02-19T00:24:57.790Z,9.26
2023-02-19T00:26:01.093Z,9.26
2023-02-19T00:26:59.794Z,9.25
2023-02-19T00:27:57.757Z,9.16
2023-02-19T00:28:57.759Z,9.25
2023-02-19T00:29:57.746Z,9.14
2023-02-19T00:30:57.758Z,9.21
2023-02-19T00:31:57.809Z,9.21
2023-02-19T00:32:58.756Z,9.26
2023-02-19T00:33:57.717Z,9.25
2023-02-19T00:34:57.711Z,9.26
2023-02-19T00:35:57.704Z,9.23
2023-02-19T00:36:57.732Z,9.25
2023-02-19T00:37:57.685Z,9.25
2023-02-19T00:38:57.678Z,9.25
2023-02-19T00:39:57.674Z,9.29
2023-02-19T00:40:57.673Z,9.29
2023-02-19T00:41:57.685Z,9.23
2023-02-19T00:42:57.654Z,9.29
2023-02-19T00:43:57.646Z,9.29
2023-02-19T00:44:57.635Z,9.32
2023-02-19T00:45:57.647Z,9.25
2023-02-19T00:46:57.641Z,9.25
2023-02-19T00:47:57.607Z,9.29
2023-02-19T00:48:57.613Z,9.26
2023-02-19T00:49:57.590Z,9.29
2023-02-19T00:50:57.587Z,9.34
2023-02-19T00:51:57.605Z,9.25
2023-02-19T00:52:57.568Z,9.29
2023-02-19T00:53:57.591Z,9.34
2023-02-19T00:54:57.555Z,9.39
2023-02-19T00:55:57.542Z,9.34
2023-02-19T00:56:57.576Z,9.37
2023-02-19T00:57:57.534Z,9.36
2023-02-19T00:58:57.527Z,9.36
2023-02-19T00:59:57.517Z,9.29
2023-02-19T01:00:57.509Z,9.37
2023-02-19T01:01:57.612Z,9.26
2023-02-19T01:02:57.495Z,9.39
2023-02-19T01:03:57.483Z,9.39
2023-02-19T01:04:57.520Z,9.39
2023-02-19T01:05:57.475Z,9.26
2023-02-19T01:06:57.484Z,9.44
2023-02-19T01:07:57.457Z,9.39
2023-02-19T01:08:57.443Z,9.36
2023-02-19T01:09:57.435Z,9.37
2023-02-19T01:10:57.427Z,9.37
2023-02-19T01:11:57.458Z,9.34
2023-02-19T01:12:57.426Z,9.46
2023-02-19T01:13:57.408Z,9.39
2023-02-19T01:14:57.395Z,9.37
2023-02-19T01:15:57.440Z,9.41
2023-02-19T01:16:57.403Z,9.34
2023-02-19T01:17:57.373Z,9.34
2023-02-19T01:18:57.364Z,9.46
2023-02-19T01:19:57.355Z,9.26
2023-02-19T01:20:57.352Z,9.43
2023-02-19T01:21:57.374Z,9.39
2023-02-19T01:22:57.332Z,9.40
2023-02-19T01:23:57.347Z,9.34
2023-02-19T01:24:57.320Z,9.40
2023-02-19T01:25:57.336Z,9.39
2023-02-19T01:26:57.314Z,9.31
2023-02-19T01:27:57.704Z,9.28
2023-02-19T01:28:57.299Z,9.31
2023-02-19T01:29:57.295Z,9.29
2023-02-19T01:30:57.280Z,9.26
2023-02-19T01:31:57.352Z,9.34
2023-02-19T01:32:57.273Z,9.28
2023-02-19T01:33:57.260Z,9.26
2023-02-19T01:34:57.233Z,9.32
2023-02-19T01:35:57.237Z,9.36
2023-02-19T01:36:57.233Z,9.32
2023-02-19T01:37:57.261Z,9.21
2023-02-19T01:38:57.211Z,9.19
2023-02-19T01:39:57.191Z,9.31
2023-02-19T01:40:57.197Z,9.31
2023-02-19T01:41:57.182Z,9.34
2023-02-19T01:42:57.211Z,9.29
2023-02-19T01:43:57.182Z,9.26
2023-02-19T01:44:57.158Z,9.25
2023-02-19T01:45:57.155Z,9.19
2023-02-19T01:46:57.142Z,9.28
2023-02-19T01:47:57.190Z,9.29
2023-02-19T01:48:57.145Z,9.25
2023-02-19T01:49:57.126Z,9.31
2023-02-19T01:50:57.118Z,9.23
2023-02-19T01:51:57.116Z,9.18
2023-02-19T01:52:57.126Z,9.31
2023-02-19T01:53:57.100Z,9.22
2023-02-19T01:54:57.096Z,9.29
2023-02-19T01:55:57.093Z,9.31
2023-02-19T01:56:57.082Z,9.25
2023-02-19T01:57:57.098Z,9.29
2023-02-19T01:58:57.101Z,9.31
2023-02-19T01:59:57.056Z,9.31
2023-02-19T02:00:57.086Z,9.23
2023-02-19T02:01:57.070Z,9.22
2023-02-19T02:02:57.047Z,9.28
2023-02-19T02:03:57.012Z,9.28
2023-02-19T02:04:57.029Z,9.22
2023-02-19T02:05:56.998Z,9.22
2023-02-19T02:06:56.992Z,9.28
2023-02-19T02:07:57.010Z,9.18
2023-02-19T02:08:56.973Z,9.26
2023-02-19T02:09:56.968Z,9.31
2023-02-19T02:10:56.971Z,9.23
2023-02-19T02:11:56.973Z,9.21
2023-02-19T02:12:56.987Z,9.32
2023-02-19T02:13:56.947Z,9.25
2023-02-19T02:14:56.932Z,9.25
2023-02-19T02:15:56.944Z,9.25
2023-02-19T02:16:56.931Z,9.28
2023-02-19T02:17:56.940Z,9.36
2023-02-19T02:18:56.904Z,9.36
2023-02-19T02:19:56.902Z,9.29
2023-02-19T02:20:56.893Z,9.43
2023-02-19T02:21:56.880Z,9.41
2023-02-19T02:22:56.908Z,9.39
2023-02-19T02:23:56.871Z,9.39
2023-02-19T02:24:56.857Z,9.40
2023-02-19T02:25:56.849Z,9.40
2023-02-19T02:26:56.850Z,9.37
2023-02-19T02:27:56.859Z,9.41
2023-02-19T02:28:56.825Z,9.40
2023-02-19T02:29:56.851Z,9.46
2023-02-19T02:30:56.872Z,9.40
2023-02-19T02:31:56.947Z,9.40
2023-02-19T02:32:56.818Z,9.46
2023-02-19T02:33:56.791Z,9.44
2023-02-19T02:34:56.796Z,9.44
2023-02-19T02:35:56.777Z,9.46
2023-02-19T02:36:56.775Z,9.47
2023-02-19T02:38:02.761Z,9.41
2023-02-19T02:38:57.750Z,9.51
2023-02-19T02:39:56.774Z,9.56
2023-02-19T02:40:56.773Z,9.51
2023-02-19T02:41:56.729Z,9.41
2023-02-19T02:42:56.746Z,9.43
2023-02-19T02:43:56.718Z,9.48
2023-02-19T02:44:56.719Z,9.44
2023-02-19T02:45:56.740Z,9.41
2023-02-19T02:46:56.694Z,9.47
2023-02-19T02:47:56.716Z,9.56
2023-02-19T02:48:56.726Z,9.47
2023-02-19T02:49:56.667Z,9.47
2023-02-19T02:50:56.655Z,9.48
2023-02-19T02:51:56.656Z,9.47
2023-02-19T02:52:56.664Z,9.54
2023-02-19T02:53:56.636Z,9.46
2023-02-19T02:54:56.634Z,9.58
2023-02-19T02:55:56.614Z,9.41
2023-02-19T02:56:56.620Z,9.46
2023-02-19T02:57:56.634Z,9.40
2023-02-19T02:58:56.606Z,9.41
2023-02-19T02:59:56.588Z,9.47
2023-02-19T03:00:56.628Z,9.46
2023-02-19T03:01:56.631Z,9.56
2023-02-19T03:02:56.595Z,9.51
2023-02-19T03:03:56.568Z,9.54
2023-02-19T03:04:56.555Z,9.46
2023-02-19T03:05:56.558Z,9.47
2023-02-19T03:06:56.537Z,9.48
2023-02-19T03:07:56.526Z,9.58
2023-02-19T03:08:56.542Z,9.54
2023-02-19T03:09:56.518Z,9.48
2023-02-19T03:10:56.507Z,9.62
2023-02-19T03:11:56.498Z,9.61
2023-02-19T03:12:56.492Z,9.59
2023-02-19T03:13:56.511Z,9.61
2023-02-19T03:14:56.473Z,9.61
2023-02-19T03:15:56.471Z,9.65
2023-02-19T03:16:56.480Z,9.64
2023-02-19T03:17:56.455Z,9.64
2023-02-19T03:18:56.470Z,9.56
2023-02-19T03:19:56.433Z,9.66
2023-02-19T03:20:56.424Z,9.61
2023-02-19T03:21:56.427Z,9.65
2023-02-19T03:22:56.408Z,9.59
2023-02-19T03:23:56.428Z,9.64
2023-02-19T03:24:56.407Z,9.61
2023-02-19T03:25:56.396Z,9.59
2023-02-19T03:26:56.376Z,9.62
2023-02-19T03:27:56.362Z,9.58
2023-02-19T03:28:56.397Z,9.59
2023-02-19T03:29:56.365Z,9.64
2023-02-19T03:30:56.365Z,9.50
2023-02-19T03:31:56.379Z,9.54
2023-02-19T03:32:56.326Z,9.55
2023-02-19T03:33:56.355Z,9.54
2023-02-19T03:34:56.311Z,9.48
2023-02-19T03:35:56.313Z,9.56
2023-02-19T03:36:56.304Z,9.47
2023-02-19T03:37:56.295Z,9.51
2023-02-19T03:38:56.318Z,9.50
2023-02-19T03:39:56.277Z,9.46
2023-02-19T03:40:56.280Z,9.46
2023-02-19T03:41:56.275Z,9.41
2023-02-19T03:42:56.330Z,9.46
2023-02-19T03:43:57.273Z,9.46
2023-02-19T03:44:56.237Z,9.41
2023-02-19T03:45:56.251Z,9.44
2023-02-19T03:46:56.223Z,9.40
2023-02-19T03:47:56.218Z,9.41
2023-02-19T03:48:56.569Z,9.40
2023-02-19T03:49:56.205Z,9.39
2023-02-19T03:50:56.202Z,9.44
2023-02-19T03:51:56.182Z,9.36
2023-02-19T03:52:56.182Z,9.29
2023-02-19T03:53:56.197Z,9.28
2023-02-19T03:54:56.166Z,9.28
2023-02-19T03:55:56.163Z,9.25
2023-02-19T03:56:56.149Z,9.36
2023-02-19T03:57:56.146Z,9.34
2023-02-19T03:58:56.168Z,9.31
2023-02-19T03:59:56.133Z,9.26
2023-02-19T04:00:56.141Z,9.40
2023-02-19T04:01:56.150Z,9.43
2023-02-19T04:02:56.099Z,9.34
2023-02-19T04:03:56.121Z,9.34
2023-02-19T04:04:56.153Z,9.46
2023-02-19T04:05:56.108Z,9.40
2023-02-19T04:06:56.076Z,9.37
2023-02-19T04:07:56.068Z,9.43
2023-02-19T04:08:56.092Z,9.40
2023-02-19T04:09:56.064Z,9.36
2023-02-19T04:10:56.057Z,9.46
2023-02-19T04:11:56.035Z,9.41
2023-02-19T04:12:56.025Z,9.41
2023-02-19T04:13:56.052Z,9.36
2023-02-19T04:14:56.015Z,9.32
2023-02-19T04:15:56.010Z,9.44
2023-02-19T04:16:56.076Z,9.37
2023-02-19T04:17:55.995Z,9.43
2023-02-19T04:18:56.016Z,9.47
2023-02-19T04:19:55.985Z,9.50
2023-02-19T04:20:55.977Z,9.44
2023-02-19T04:21:55.964Z,9.34
2023-02-19T04:22:55.966Z,9.43
2023-02-19T04:23:55.976Z,9.54
2023-02-19T04:24:55.947Z,9.39
2023-02-19T04:25:55.977Z,9.40
2023-02-19T04:26:55.947Z,9.41
2023-02-19T04:27:55.924Z,9.41
2023-02-19T04:28:55.938Z,9.47
2023-02-19T04:29:55.905Z,9.48
2023-02-19T04:30:55.945Z,9.47
2023-02-19T04:31:55.949Z,9.54
2023-02-19T04:32:55.879Z,9.44
2023-02-19T04:33:55.896Z,9.43
2023-02-19T04:34:55.865Z,9.51
2023-02-19T04:35:55.861Z,9.41
2023-02-19T04:36:55.852Z,9.46
2023-02-19T04:37:55.843Z,9.48
2023-02-19T04:38:55.863Z,9.47
2023-02-19T04:39:55.825Z,9.50
2023-02-19T04:40:55.831Z,9.41
2023-02-19T04:41:55.815Z,9.51
2023-02-19T04:42:55.811Z,9.46
2023-02-19T04:43:55.804Z,9.41
2023-02-19T04:44:55.817Z,9.39
2023-02-19T04:45:55.794Z,9.54
2023-02-19T04:46:55.772Z,9.55
2023-02-19T04:47:55.783Z,9.56
2023-02-19T04:48:55.852Z,9.44
2023-02-19T04:49:55.788Z,9.40
2023-02-19T04:50:55.756Z,9.54
2023-02-19T04:51:55.745Z,9.58
2023-02-19T04:52:55.730Z,9.51
2023-02-19T04:53:55.740Z,9.51
2023-02-19T04:54:55.741Z,9.43
2023-02-19T04:55:55.709Z,9.55
2023-02-19T04:56:55.709Z,9.55
2023-02-19T04:57:55.694Z,9.44
2023-02-19T04:58:55.676Z,9.54
2023-02-19T04:59:55.699Z,9.58
2023-02-19T05:00:55.665Z,9.50
2023-02-19T05:01:55.732Z,9.46
2023-02-19T05:02:55.652Z,9.46
2023-02-19T05:03:55.644Z,9.56
2023-02-19T05:04:55.662Z,9.58
2023-02-19T05:05:55.628Z,9.44
2023-02-19T05:06:55.621Z,9.48
2023-02-19T05:07:55.616Z,9.54
2023-02-19T05:08:55.606Z,9.44
2023-02-19T05:09:55.631Z,9.61
2023-02-19T05:10:55.598Z,9.58
2023-02-19T05:11:55.588Z,9.43
2023-02-19T05:12:57.880Z,9.46
2023-02-19T05:13:56.589Z,9.50
2023-02-19T05:14:55.588Z,9.54
2023-02-19T05:15:55.603Z,9.48
2023-02-19T05:16:55.550Z,9.54
2023-02-19T05:17:55.560Z,9.55
2023-02-19T05:18:55.536Z,9.58
2023-02-19T05:19:55.557Z,9.62
2023-02-19T05:20:55.517Z,9.50
2023-02-19T05:21:55.513Z,9.46
2023-02-19T05:22:55.506Z,9.59
2023-02-19T05:23:55.523Z,9.54
2023-02-19T05:24:55.523Z,9.47
2023-02-19T05:25:55.490Z,9.62
2023-02-19T05:26:55.482Z,9.44
2023-02-19T05:27:55.462Z,9.54
2023-02-19T05:28:55.459Z,9.41
2023-02-19T05:29:55.473Z,9.48
2023-02-19T05:30:55.475Z,9.55
2023-02-19T05:31:55.564Z,9.41
2023-02-19T05:32:55.427Z,9.43
2023-02-19T05:33:55.423Z,9.48
2023-02-19T05:34:55.447Z,9.46
2023-02-19T05:35:55.405Z,9.55
2023-02-19T05:36:55.397Z,9.54
2023-02-19T05:37:55.388Z,9.50
2023-02-19T05:38:55.380Z,9.59
2023-02-19T05:39:55.409Z,9.50
2023-02-19T05:40:55.359Z,9.56
2023-02-19T05:41:55.367Z,9.43
2023-02-19T05:42:55.341Z,9.58
2023-02-19T05:43:55.353Z,9.41
2023-02-19T05:44:55.336Z,9.56
2023-02-19T05:45:55.363Z,9.50
2023-02-19T05:46:55.317Z,9.61
2023-02-19T05:47:55.312Z,9.61
2023-02-19T05:48:55.295Z,9.59
2023-02-19T05:49:56.307Z,9.64
2023-02-19T05:50:55.320Z,9.55
2023-02-19T05:51:55.281Z,9.62
2023-02-19T05:52:55.284Z,9.68
2023-02-19T05:53:55.261Z,9.62
2023-02-19T05:54:55.253Z,9.65
2023-02-19T05:55:55.274Z,9.69
2023-02-19T05:56:55.239Z,9.68
2023-02-19T05:57:55.233Z,9.66
2023-02-19T05:58:55.240Z,9.69
2023-02-19T05:59:55.221Z,9.59
2023-02-19T06:00:55.240Z,9.50
2023-02-19T06:01:55.225Z,9.62
2023-02-19T06:02:55.249Z,9.54
2023-02-19T06:03:57.314Z,9.56
2023-02-19T06:04:56.190Z,9.62
2023-02-19T06:05:55.201Z,9.56
2023-02-19T06:06:55.162Z,9.61
2023-02-19T06:07:55.156Z,9.55
2023-02-19T06:08:55.146Z,9.58
2023-02-19T06:09:55.133Z,9.51
2023-02-19T06:10:55.157Z,9.56
2023-02-19T06:11:55.129Z,9.48
2023-02-19T06:12:55.108Z,9.51
2023-02-19T06:13:55.123Z,9.44
2023-02-19T06:14:55.101Z,9.41
2023-02-19T06:15:55.167Z,9.56
2023-02-19T06:16:55.077Z,9.54
2023-02-19T06:17:55.070Z,9.46
2023-02-19T06:18:55.065Z,9.55
2023-02-19T06:19:55.056Z,9.50
2023-02-19T06:20:55.096Z,9.47
2023-02-19T06:21:55.038Z,9.50
2023-02-19T06:22:55.032Z,9.48
2023-02-19T06:23:55.035Z,9.54
2023-02-19T06:24:55.021Z,9.48
2023-02-19T06:25:55.007Z,9.50
2023-02-19T06:26:55.029Z,9.44
2023-02-19T06:27:54.996Z,9.48
2023-02-19T06:28:54.985Z,9.44
2023-02-19T06:29:54.984Z,9.36
2023-02-19T06:30:55.000Z,9.41
2023-02-19T06:31:55.101Z,9.39
2023-02-19T06:32:54.958Z,9.37
2023-02-19T06:33:54.972Z,9.28
2023-02-19T06:34:54.961Z,9.40
2023-02-19T06:35:54.936Z,9.41
2023-02-19T06:36:55.031Z,9.39
2023-02-19T06:37:54.925Z,9.39
2023-02-19T06:38:54.920Z,9.40
2023-02-19T06:39:54.908Z,9.41
2023-02-19T06:40:54.902Z,9.43
2023-02-19T06:41:54.917Z,9.37
2023-02-19T06:42:54.886Z,9.34
2023-02-19T06:43:54.879Z,9.43
2023-02-19T06:44:54.880Z,9.48
2023-02-19T06:45:54.870Z,9.40
2023-02-19T06:46:54.931Z,9.51
2023-02-19T06:47:54.869Z,9.43
2023-02-19T06:48:54.833Z,9.41
2023-02-19T06:49:54.828Z,9.41
2023-02-19T06:50:54.828Z,9.50
2023-02-19T06:51:54.842Z,9.55
2023-02-19T06:52:54.806Z,9.48
2023-02-19T06:53:54.799Z,9.47
2023-02-19T06:54:54.797Z,9.54
2023-02-19T06:55:54.785Z,9.50
2023-02-19T06:56:54.848Z,9.43
2023-02-19T06:57:54.776Z,9.50
2023-02-19T06:58:54.770Z,9.50
2023-02-19T06:59:54.764Z,9.41
2023-02-19T07:00:54.817Z,9.37
2023-02-19T07:01:54.765Z,9.43
2023-02-19T07:02:54.730Z,9.47
2023-02-19T07:03:54.788Z,9.40
2023-02-19T07:04:54.720Z,9.46
2023-02-19T07:05:54.713Z,9.44
2023-02-19T07:06:54.732Z,9.43
2023-02-19T07:07:54.695Z,9.47
2023-02-19T07:08:54.692Z,9.50
2023-02-19T07:09:54.681Z,9.40
2023-02-19T07:10:54.665Z,9.48
2023-02-19T07:11:54.692Z,9.44
2023-02-19T07:12:54.647Z,9.47
2023-02-19T07:13:54.644Z,9.44
2023-02-19T07:14:54.635Z,9.48
2023-02-19T07:15:54.628Z,9.58
2023-02-19T07:16:54.641Z,9.47
2023-02-19T07:17:54.607Z,9.54
2023-02-19T07:18:54.646Z,9.62
2023-02-19T07:19:55.590Z,9.56
2023-02-19T07:20:54.590Z,9.66
2023-02-19T07:21:54.603Z,9.65
2023-02-19T07:22:54.569Z,9.56
2023-02-19T07:23:54.563Z,9.62
2023-02-19T07:24:54.558Z,9.46
2023-02-19T07:25:54.546Z,9.48
2023-02-19T07:26:54.565Z,9.50
2023-02-19T07:27:54.530Z,9.50
2023-02-19T07:28:54.658Z,9.43
2023-02-19T07:29:54.526Z,9.48
2023-02-19T07:30:54.557Z,9.58
2023-02-19T07:31:54.651Z,9.55
2023-02-19T07:32:54.504Z,9.48
2023-02-19T07:33:54.500Z,9.50
2023-02-19T07:34:54.521Z,9.47
2023-02-19T07:35:54.471Z,9.48
2023-02-19T07:36:54.608Z,9.54
2023-02-19T07:37:54.452Z,9.56
2023-02-19T07:38:54.449Z,9.41
2023-02-19T07:39:54.444Z,9.44
2023-02-19T07:40:54.444Z,9.26
2023-02-19T07:41:54.456Z,9.26
2023-02-19T07:42:54.413Z,9.43
2023-02-19T07:43:54.412Z,9.25
2023-02-19T07:44:54.401Z,9.44
2023-02-19T07:45:54.448Z,9.32
2023-02-19T07:46:54.412Z,9.34
2023-02-19T07:47:54.373Z,9.44
2023-02-19T07:48:54.371Z,9.36
2023-02-19T07:49:54.362Z,9.41
2023-02-19T07:50:54.355Z,9.39
2023-02-19T07:51:54.382Z,9.36
2023-02-19T07:52:54.337Z,9.40
2023-02-19T07:53:54.337Z,9.25
2023-02-19T07:54:54.330Z,9.36
2023-02-19T07:55:54.329Z,9.23
2023-02-19T07:56:54.337Z,9.28
2023-02-19T07:57:54.300Z,9.19
2023-02-19T07:58:54.299Z,9.18
2023-02-19T07:59:54.293Z,9.25
2023-02-19T08:00:54.292Z,9.25
2023-02-19T08:01:54.306Z,9.23
2023-02-19T08:02:54.269Z,9.28
2023-02-19T08:03:54.261Z,9.31
2023-02-19T08:04:54.253Z,9.34
2023-02-19T08:05:54.246Z,9.32
2023-02-19T08:06:54.238Z,9.43
2023-02-19T08:07:54.253Z,9.37
2023-02-19T08:08:56.997Z,9.46
2023-02-19T08:09:54.215Z,9.46
2023-02-19T08:10:54.209Z,9.40
2023-02-19T08:11:54.203Z,9.50
2023-02-19T08:12:54.227Z,9.44
2023-02-19T08:13:54.216Z,9.44
2023-02-19T08:14:54.183Z,9.55
2023-02-19T08:15:56.297Z,9.39
2023-02-19T08:16:54.266Z,9.47
2023-02-19T08:17:54.181Z,9.43
2023-02-19T08:18:54.139Z,9.51
2023-02-19T08:19:54.139Z,9.55
2023-02-19T08:20:54.126Z,9.58
2023-02-19T08:21:54.134Z,9.59
2023-02-19T08:22:54.136Z,9.48
2023-02-19T08:23:54.113Z,9.51
2023-02-19T08:24:54.098Z,9.55
2023-02-19T08:25:54.082Z,9.41
2023-02-19T08:26:54.082Z,9.44
2023-02-19T08:27:54.108Z,9.43
2023-02-19T08:28:54.086Z,9.39
2023-02-19T08:29:54.051Z,9.29
2023-02-19T08:30:54.142Z,9.34
2023-02-19T08:31:54.051Z,9.37
2023-02-19T08:32:54.053Z,9.32
2023-02-19T08:33:54.024Z,9.36
2023-02-19T08:34:54.016Z,9.43
2023-02-19T08:35:54.014Z,9.40
2023-02-19T08:36:53.994Z,9.44
2023-02-19T08:37:54.011Z,9.50
2023-02-19T08:38:53.986Z,9.62
2023-02-19T08:39:53.977Z,9.51
2023-02-19T08:40:54.003Z,9.50
2023-02-19T08:41:53.996Z,9.41
2023-02-19T08:42:54.981Z,9.26
2023-02-19T08:43:53.956Z,9.34
2023-02-19T08:44:53.936Z,9.28
2023-02-19T08:45:53.944Z,9.39
2023-02-19T08:46:53.916Z,9.32
2023-02-19T08:47:54.945Z,9.28
2023-02-19T08:48:53.903Z,9.40
2023-02-19T08:49:53.892Z,9.28
2023-02-19T08:50:53.906Z,9.28
2023-02-19T08:51:53.892Z,9.29
2023-02-19T08:52:53.907Z,9.36
2023-02-19T08:53:53.863Z,9.41
2023-02-19T08:54:53.856Z,9.29
2023-02-19T08:55:53.851Z,9.40
2023-02-19T08:56:53.846Z,9.41
2023-02-19T08:57:53.838Z,9.44
2023-02-19T08:58:53.856Z,9.50
2023-02-19T08:59:53.813Z,9.56
2023-02-19T09:00:53.852Z,9.48
2023-02-19T09:01:53.800Z,9.51
2023-02-19T09:02:53.856Z,9.44
2023-02-19T09:03:53.828Z,9.55
2023-02-19T09:04:53.783Z,9.50
2023-02-19T09:05:53.841Z,9.62
2023-02-19T09:06:53.767Z,9.65
2023-02-19T09:07:53.761Z,9.62
2023-02-19T09:08:53.780Z,9.68
2023-02-19T09:09:53.741Z,9.73
2023-02-19T09:10:53.730Z,9.74
2023-02-19T09:11:53.741Z,9.76
2023-02-19T09:12:53.717Z,9.72
2023-02-19T09:13:53.734Z,9.82
2023-02-19T09:14:53.699Z,9.72
2023-02-19T09:15:53.714Z,9.76
2023-02-19T09:16:53.686Z,9.74
2023-02-19T09:17:53.682Z,9.76
2023-02-19T09:18:53.696Z,9.72
2023-02-19T09:19:53.668Z,9.77
2023-02-19T09:20:53.646Z,9.83
2023-02-19T09:21:53.649Z,9.83
2023-02-19T09:22:53.637Z,9.89
2023-02-19T09:23:53.656Z,9.86
2023-02-19T09:24:53.620Z,9.94
2023-02-19T09:25:53.620Z,9.92
2023-02-19T09:26:53.607Z,9.84
2023-02-19T09:27:53.597Z,9.99
2023-02-19T09:28:53.622Z,10.04
2023-02-19T09:29:53.587Z,9.98
2023-02-19T09:30:53.583Z,10.02
2023-02-19T09:31:53.591Z,10.02
2023-02-19T09:32:53.569Z,9.97
2023-02-19T09:33:53.643Z,10.12
2023-02-19T09:34:53.549Z,9.97
2023-02-19T09:35:53.547Z,9.86
2023-02-19T09:36:53.544Z,9.86
2023-02-19T09:37:53.531Z,9.95
2023-02-19T09:38:53.565Z,9.95
2023-02-19T09:39:53.511Z,9.97
2023-02-19T09:40:53.510Z,10.10
2023-02-19T09:41:53.496Z,9.99
2023-02-19T09:42:53.491Z,10.05
2023-02-19T09:43:53.513Z,10.07
2023-02-19T09:44:53.471Z,9.95
2023-02-19T09:45:53.512Z,9.97
2023-02-19T09:46:53.464Z,9.97
2023-02-19T09:47:53.453Z,9.99
2023-02-19T09:48:53.472Z,10.04
2023-02-19T09:49:53.440Z,10.04
2023-02-19T09:50:53.429Z,10.09
2023-02-19T09:51:53.422Z,10.07
2023-02-19T09:52:53.422Z,9.94
2023-02-19T09:53:53.434Z,9.94
2023-02-19T09:54:54.397Z,9.99
2023-02-19T09:55:53.395Z,10.07
2023-02-19T09:56:53.396Z,10.23
2023-02-19T09:57:53.379Z,10.23
2023-02-19T09:58:53.390Z,10.31
2023-02-19T09:59:53.356Z,10.26
2023-02-19T10:00:53.345Z,10.22
2023-02-19T10:01:53.386Z,10.35
2023-02-19T10:02:53.329Z,10.30
2023-02-19T10:03:53.353Z,10.37
2023-02-19T10:04:53.353Z,10.53
2023-02-19T10:05:53.317Z,10.46
2023-02-19T10:06:53.304Z,10.57
2023-02-19T10:07:53.294Z,10.53
2023-02-19T10:08:53.318Z,10.61
2023-02-19T10:09:53.282Z,10.56
2023-02-19T10:10:53.279Z,10.53
2023-02-19T10:11:53.264Z,10.60
2023-02-19T10:12:53.271Z,10.61
2023-02-19T10:13:53.282Z,10.53
2023-02-19T10:14:53.241Z,10.51
2023-02-19T10:15:53.313Z,10.49
2023-02-19T10:16:53.261Z,10.51
2023-02-19T10:17:53.235Z,10.44
2023-02-19T10:18:53.220Z,10.34
2023-02-19T10:19:53.234Z,10.40
2023-02-19T10:20:53.200Z,10.46
2023-02-19T10:21:53.193Z,10.53
2023-02-19T10:22:53.180Z,10.49
2023-02-19T10:23:53.188Z,10.42
2023-02-19T10:24:53.188Z,10.35
2023-02-19T10:25:53.156Z,10.41
2023-02-19T10:26:53.149Z,10.42
2023-02-19T10:27:53.151Z,10.30
2023-02-19T10:28:53.140Z,10.30
2023-02-19T10:29:53.162Z,10.30
2023-02-19T10:30:53.153Z,10.31
2023-02-19T10:31:53.215Z,10.31
2023-02-19T10:32:53.110Z,10.25
2023-02-19T10:33:53.122Z,10.34
2023-02-19T10:34:53.125Z,10.37
2023-02-19T10:35:53.082Z,10.40
2023-02-19T10:36:53.082Z,10.42
2023-02-19T10:37:53.077Z,10.26
2023-02-19T10:38:53.075Z,10.41
2023-02-19T10:39:53.085Z,10.38
2023-02-19T10:40:53.053Z,10.40
2023-02-19T10:41:53.044Z,10.40
2023-02-19T10:42:53.048Z,10.42
2023-02-19T10:43:53.045Z,10.53
2023-02-19T10:44:53.041Z,10.56
2023-02-19T10:45:53.026Z,10.59
2023-02-19T10:46:54.014Z,10.54
2023-02-19T10:47:52.993Z,10.53
2023-02-19T10:48:52.990Z,10.59
2023-02-19T10:49:53.005Z,10.53
2023-02-19T10:50:52.971Z,10.59
2023-02-19T10:51:52.967Z,10.51
2023-02-19T10:52:52.955Z,10.69
2023-02-19T10:53:52.950Z,10.86
2023-02-19T10:54:52.994Z,10.87
2023-02-19T10:55:52.939Z,11.00
2023-02-19T10:56:52.928Z,11.12
2023-02-19T10:57:52.921Z,11.08
2023-02-19T10:58:52.915Z,11.22
2023-02-19T10:59:52.935Z,11.32
2023-02-19T11:00:52.889Z,11.18
2023-02-19T11:01:53.025Z,11.12
2023-02-19T11:02:52.876Z,11.17
2023-02-19T11:03:52.874Z,11.08
2023-02-19T11:04:52.890Z,11.02
2023-02-19T11:05:52.865Z,10.93
2023-02-19T11:06:52.861Z,10.93
2023-02-19T11:07:52.841Z,10.96
2023-02-19T11:08:52.831Z,10.90
2023-02-19T11:09:52.856Z,10.94
2023-02-19T11:10:52.821Z,11.08
2023-02-19T11:11:52.801Z,11.02
2023-02-19T11:12:52.811Z,10.97
2023-02-19T11:13:52.797Z,10.89
2023-02-19T11:14:52.810Z,10.90
2023-02-19T11:15:52.829Z,10.74
2023-02-19T11:16:52.766Z,10.75
2023-02-19T11:17:52.772Z,10.71
2023-02-19T11:18:52.856Z,10.53
2023-02-19T11:19:52.772Z,10.61
2023-02-19T11:20:52.750Z,10.60
2023-02-19T11:21:52.737Z,10.57
2023-02-19T11:22:52.754Z,10.61
2023-02-19T11:23:52.721Z,10.61
2023-02-19T11:24:56.683Z,10.84
2023-02-19T11:25:54.712Z,11.02
2023-02-19T11:26:52.700Z,11.11
2023-02-19T11:27:52.692Z,11.25
2023-02-19T11:28:52.685Z,11.23
2023-02-19T11:29:52.709Z,11.25
2023-02-19T11:30:52.669Z,11.30
2023-02-19T11:31:52.737Z,11.30
2023-02-19T11:32:52.651Z,11.27
2023-02-19T11:33:52.650Z,11.15
2023-02-19T11:34:52.695Z,11.14
2023-02-19T11:35:52.640Z,10.99
2023-02-19T11:36:52.617Z,11.02
2023-02-19T11:37:52.613Z,11.08
2023-02-19T11:38:52.616Z,10.96
2023-02-19T11:39:52.614Z,11.00
2023-02-19T11:40:52.622Z,11.05
2023-02-19T11:41:52.576Z,10.93
2023-02-19T11:42:52.606Z,10.71
2023-02-19T11:43:52.575Z,10.69
2023-02-19T11:44:52.626Z,10.68
2023-02-19T11:45:52.574Z,10.74
2023-02-19T11:46:52.668Z,10.67
2023-02-19T11:47:52.538Z,10.54
2023-02-19T11:48:52.550Z,10.48
2023-02-19T11:49:52.526Z,10.49
2023-02-19T11:50:52.562Z,10.30
2023-02-19T11:51:52.960Z,10.13
2023-02-19T11:52:53.506Z,10.07
2023-02-19T11:53:52.487Z,9.94
2023-02-19T11:54:52.489Z,9.97
2023-02-19T11:55:52.503Z,9.51
2023-02-19T11:56:52.470Z,9.31
2023-02-19T11:57:52.444Z,9.21
2023-02-19T11:58:52.447Z,9.29
2023-02-19T11:59:52.454Z,9.19
2023-02-19T12:00:52.464Z,9.26
2023-02-19T12:01:52.470Z,9.18
2023-02-19T12:02:52.407Z,9.23
2023-02-19T12:03:52.394Z,9.22
2023-02-19T12:04:52.392Z,9.32
2023-02-19T12:05:53.432Z,9.29
2023-02-19T12:06:52.368Z,9.18
2023-02-19T12:07:52.371Z,9.36
2023-02-19T12:08:52.426Z,9.31
2023-02-19T12:09:52.413Z,9.34
2023-02-19T12:10:52.388Z,9.36
2023-02-19T12:11:52.337Z,9.29
2023-02-19T12:12:52.342Z,9.46
2023-02-19T12:13:52.365Z,9.54
2023-02-19T12:14:52.336Z,9.47
2023-02-19T12:15:52.353Z,9.44
2023-02-19T12:16:52.311Z,9.54
2023-02-19T12:17:52.324Z,9.46
2023-02-19T12:18:52.302Z,9.50
2023-02-19T12:19:52.307Z,9.54
2023-02-19T12:20:52.291Z,9.44
2023-02-19T12:21:53.294Z,9.26
2023-02-19T12:22:52.272Z,9.28
2023-02-19T12:23:52.270Z,9.36
2023-02-19T12:24:52.249Z,9.19
2023-02-19T12:25:52.274Z,9.13
2023-02-19T12:26:52.291Z,9.21
2023-02-19T12:27:52.240Z,9.06
2023-02-19T12:28:52.241Z,8.99
2023-02-19T12:29:52.224Z,8.91
2023-02-19T12:30:52.289Z,8.99
2023-02-19T12:31:52.278Z,8.95
2023-02-19T12:32:52.193Z,8.92
2023-02-19T12:33:52.185Z,8.92
2023-02-19T12:34:52.184Z,9.00
2023-02-19T12:35:52.185Z,9.18
2023-02-19T12:36:52.185Z,9.18
2023-02-19T12:37:52.144Z,9.14
2023-02-19T12:38:52.162Z,9.14
2023-02-19T12:39:52.177Z,9.08
2023-02-19T12:40:52.154Z,9.13
2023-02-19T12:41:52.114Z,9.08
2023-02-19T12:42:52.101Z,9.26
2023-02-19T12:43:52.080Z,9.18
2023-02-19T12:44:52.085Z,9.23
2023-02-19T12:45:52.189Z,9.25
2023-02-19T12:46:52.085Z,9.18
2023-02-19T12:47:52.062Z,9.28
2023-02-19T12:48:52.057Z,9.22
2023-02-19T12:49:52.043Z,9.34
2023-02-19T12:50:52.084Z,9.21
2023-02-19T12:51:52.022Z,9.06
2023-02-19T12:52:52.029Z,8.87
2023-02-19T12:53:52.006Z,8.91
2023-02-19T12:54:53.185Z,8.82
2023-02-19T12:55:53.049Z,8.87
2023-02-19T12:56:51.992Z,8.84
2023-02-19T12:57:51.996Z,8.81
2023-02-19T12:58:51.994Z,8.94
2023-02-19T12:59:51.982Z,8.78
2023-02-19T13:00:52.026Z,8.78
2023-02-19T13:01:51.979Z,8.64
2023-02-19T13:02:51.964Z,8.85
2023-02-19T13:03:51.971Z,8.76
2023-02-19T13:04:51.950Z,8.76
2023-02-19T13:05:51.980Z,8.85
2023-02-19T13:06:51.927Z,8.85
2023-02-19T13:07:51.917Z,8.95
2023-02-19T13:09:06.031Z,8.99
2023-02-19T13:09:53.901Z,9.10
2023-02-19T13:10:51.971Z,8.85
2023-02-19T13:11:51.933Z,8.87
2023-02-19T13:12:51.883Z,8.95
2023-02-19T13:13:51.876Z,9.10
2023-02-19T13:14:51.886Z,9.16